createdAt,value
2022-08-03T00:08:58.426Z,5.60
2022-08-03T00:23:59.575Z,5.10
2022-08-03T00:39:00.802Z,5.90
2022-08-03T00:54:02.023Z,5.80
2022-08-03T01:09:03.148Z,5.30
2022-08-03T01:24:04.418Z,5.40
2022-08-03T01:39:05.591Z,6.00
2022-08-03T01:54:06.154Z,5.60
2022-08-03T02:09:06.895Z,6.40
2022-08-03T02:24:08.009Z,6.60
2022-08-03T02:39:09.316Z,6.20
2022-08-03T02:54:10.440Z,6.80
2022-08-03T03:09:11.550Z,7.00
2022-08-03T03:24:12.684Z,6.90
2022-08-03T03:39:15.200Z,7.30
2022-08-03T03:54:17.654Z,8.20
2022-08-03T04:09:19.161Z,7.60
2022-08-03T04:24:19.897Z,7.80
2022-08-03T04:39:21.609Z,19.90
2022-08-03T04:54:22.734Z,18.30
2022-08-03T05:09:50.129Z,9.40
2022-08-03T05:24:29.691Z,5.20
2022-08-03T05:39:30.405Z,3.70
2022-08-03T05:54:56.326Z,3.60
2022-08-03T06:10:35.409Z,3.40
2022-08-03T06:24:53.664Z,2.90
2022-08-03T06:39:52.398Z,124.40
2022-08-03T06:54:53.149Z,999.90
2022-08-03T07:09:57.640Z,999.90
2022-08-03T07:24:58.460Z,999.90
2022-08-03T07:39:59.584Z,999.90
2022-08-03T07:55:00.739Z,999.90
2022-08-03T08:10:01.941Z,999.90
2022-08-03T08:25:03.036Z,999.90
2022-08-03T08:40:03.758Z,988.80
2022-08-03T08:55:03.844Z,999.90
2022-08-03T09:10:12.495Z,999.90
2022-08-03T09:25:25.233Z,999.90
2022-08-03T09:40:16.920Z,999.90
2022-08-03T09:56:32.737Z,999.90
2022-08-03T10:10:30.403Z,999.90
2022-08-03T10:25:33.177Z,999.90
2022-08-03T10:40:51.839Z,854.80
2022-08-03T10:55:40.757Z,999.90
2022-08-03T11:10:41.976Z,999.90
2022-08-03T11:25:55.119Z,999.90
2022-08-03T11:40:49.672Z,999.90
2022-08-03T11:55:50.929Z,999.90
2022-08-03T12:10:52.004Z,999.90
2022-08-03T12:25:53.232Z,999.90
2022-08-03T12:40:56.370Z,999.90
2022-08-03T12:56:05.903Z,999.90
2022-08-03T13:11:03.767Z,999.90
2022-08-03T13:26:04.973Z,999.90
2022-08-03T13:41:06.491Z,999.90
2022-08-03T13:56:06.947Z,999.90
2022-08-03T14:11:08.007Z,999.90
2022-08-03T14:26:09.705Z,999.90
2022-08-03T14:41:12.334Z,999.90
2022-08-03T14:56:15.542Z,999.90
2022-08-03T15:11:16.263Z,999.90
2022-08-03T15:26:32.700Z,999.90
2022-08-03T15:41:23.657Z,999.90
2022-08-03T15:56:24.795Z,999.90
2022-08-03T16:11:28.010Z,999.90
2022-08-03T16:26:28.723Z,999.90
2022-08-03T16:41:53.494Z,999.90
2022-08-03T16:56:39.051Z,999.90
2022-08-03T17:11:46.861Z,999.90
2022-08-03T17:26:49.956Z,999.90
2022-08-03T17:41:51.109Z,999.90
2022-08-03T17:56:52.348Z,698.40
2022-08-03T18:11:53.500Z,205.30
2022-08-03T18:26:55.683Z,76.10
2022-08-03T18:41:57.931Z,55.70
2022-08-03T18:57:00.001Z,299.30
2022-08-03T19:12:11.237Z,999.90
2022-08-03T19:27:06.757Z,281.70
2022-08-03T19:42:20.073Z,297.70
2022-08-03T19:57:18.728Z,107.00
2022-08-03T20:12:20.402Z,220.40
2022-08-03T20:27:30.242Z,18.80
2022-08-03T20:42:31.027Z,8.10
2022-08-03T20:57:33.161Z,9.60
2022-08-03T21:12:33.751Z,10.00
2022-08-03T21:27:34.972Z,9.20
2022-08-03T21:42:36.151Z,6.30
2022-08-03T21:57:38.420Z,0.70
2022-08-03T22:12:40.789Z,8.10
2022-08-03T22:27:41.402Z,6.60
2022-08-03T22:42:41.661Z,7.20
2022-08-03T22:57:41.987Z,6.70
2022-08-03T23:12:42.563Z,6.60
2022-08-03T23:27:43.816Z,7.70
2022-08-03T23:42:45.011Z,6.80
2022-08-03T23:57:46.265Z,7.00
